createdAt,value
2023-04-21T00:00:47.967Z,101735.13
2023-04-21T00:03:39.077Z,101737.03
2023-04-21T00:06:31.523Z,101744.75
2023-04-21T00:09:21.487Z,101746.69
2023-04-21T00:12:10.936Z,101750.00
2023-04-21T00:15:00.318Z,101729.78
2023-04-21T00:17:49.532Z,101741.19
2023-04-21T00:20:39.334Z,101747.81
2023-04-21T00:23:29.968Z,101749.41
2023-04-21T00:26:20.404Z,101747.50
2023-04-21T00:29:11.498Z,101752.50
2023-04-21T00:32:02.051Z,101747.28
2023-04-21T00:34:53.222Z,101743.41
2023-04-21T00:37:42.481Z,101756.00
2023-04-21T00:40:35.530Z,101738.88
2023-04-21T00:43:26.852Z,101740.72
2023-04-21T00:46:17.041Z,101737.00
2023-04-21T00:49:08.189Z,101740.25
2023-04-21T00:51:57.714Z,101734.84
2023-04-21T00:54:47.527Z,101740.34
2023-04-21T00:57:39.505Z,101737.06
2023-04-21T01:00:29.193Z,101735.13
2023-04-21T01:03:19.152Z,101733.78
2023-04-21T01:06:09.281Z,101743.38
2023-04-21T01:09:00.127Z,101734.66
2023-04-21T01:12:03.415Z,101723.28
2023-04-21T01:14:54.304Z,101714.44
2023-04-21T01:17:44.136Z,101715.53
2023-04-21T01:20:36.337Z,101710.09
2023-04-21T01:23:30.052Z,101699.47
2023-04-21T01:26:21.365Z,101692.94
2023-04-21T01:29:10.624Z,101704.88
2023-04-21T01:32:00.083Z,101679.91
2023-04-21T01:34:50.838Z,101662.03
2023-04-21T01:37:40.405Z,101665.34
2023-04-21T01:40:31.343Z,101655.09
2023-04-21T01:43:24.737Z,101658.31
2023-04-21T01:46:14.070Z,101638.06
2023-04-21T01:49:03.327Z,101639.41
2023-04-21T01:51:52.616Z,101652.25
2023-04-21T01:54:42.321Z,101669.56
2023-04-21T01:57:33.058Z,101656.22
2023-04-21T02:00:22.582Z,101670.19
2023-04-21T02:03:12.034Z,101671.81
2023-04-21T02:06:01.387Z,101674.03
2023-04-21T02:08:50.657Z,101673.50
2023-04-21T02:11:39.871Z,101669.41
2023-04-21T02:14:30.828Z,101638.97
2023-04-21T02:17:20.163Z,101646.28
2023-04-21T02:20:12.353Z,101638.84
2023-04-21T02:23:01.600Z,101652.31
2023-04-21T02:25:50.893Z,101647.69
2023-04-21T02:28:40.126Z,101648.75
2023-04-21T02:31:31.389Z,101648.16
2023-04-21T02:34:20.736Z,101629.81
2023-04-21T02:37:10.002Z,101616.16
2023-04-21T02:39:59.196Z,101618.13
2023-04-21T02:42:48.447Z,101608.38
2023-04-21T02:45:38.876Z,101607.78
2023-04-21T02:48:29.506Z,101605.38
2023-04-21T02:51:18.776Z,101599.09
2023-04-21T02:54:08.235Z,101616.81
2023-04-21T02:56:57.438Z,101615.13
2023-04-21T02:59:46.769Z,101602.81
2023-04-21T03:02:36.171Z,101618.13
2023-04-21T03:05:27.002Z,101626.28
2023-04-21T03:08:16.341Z,101612.09
2023-04-21T03:11:05.727Z,101596.50
2023-04-21T03:13:54.916Z,101601.69
2023-04-21T03:16:44.376Z,101601.91
2023-04-21T03:19:34.692Z,101595.91
2023-04-21T03:22:25.511Z,101585.28
2023-04-21T03:25:14.904Z,101600.63
2023-04-21T03:28:04.350Z,101611.03
2023-04-21T03:30:53.612Z,101599.38
2023-04-21T03:33:42.795Z,101607.56
2023-04-21T03:36:32.406Z,101586.50
2023-04-21T03:39:23.559Z,101583.50
2023-04-21T03:42:15.659Z,101577.22
2023-04-21T03:45:06.014Z,101573.34
2023-04-21T03:47:57.139Z,101560.22
2023-04-21T03:50:46.750Z,101554.53
2023-04-21T03:53:36.271Z,101555.06
2023-04-21T03:56:27.123Z,101559.50
2023-04-21T03:59:17.259Z,101552.59
2023-04-21T04:02:06.837Z,101529.72
2023-04-21T04:04:56.223Z,101534.56
2023-04-21T04:07:46.335Z,101529.13
2023-04-21T04:10:35.979Z,101539.72
2023-04-21T04:13:27.786Z,101537.00
2023-04-21T04:16:17.030Z,101535.38
2023-04-21T04:19:06.468Z,101534.00
2023-04-21T04:21:55.639Z,101547.81
2023-04-21T04:24:45.866Z,101532.50
2023-04-21T04:27:35.019Z,101541.72
2023-04-21T04:30:28.082Z,101527.09
2023-04-21T04:33:17.050Z,101526.41
2023-04-21T04:36:06.730Z,101541.94
2023-04-21T04:38:56.519Z,101540.56
2023-04-21T04:41:47.218Z,101533.97
2023-04-21T04:44:37.134Z,101532.09
2023-04-21T04:47:27.770Z,101537.22
2023-04-21T04:50:17.033Z,101528.69
2023-04-21T04:53:06.311Z,101522.59
2023-04-21T04:55:55.604Z,101521.88
2023-04-21T04:58:46.517Z,101522.41
2023-04-21T05:01:35.748Z,101508.41
2023-04-21T05:04:27.424Z,101515.03
2023-04-21T05:07:17.042Z,101525.34
2023-04-21T05:10:07.473Z,101515.69
2023-04-21T05:12:56.648Z,101528.78
2023-04-21T05:15:45.911Z,101515.41
2023-04-21T05:18:35.140Z,101514.31
2023-04-21T05:21:28.445Z,101517.19
2023-04-21T05:24:23.242Z,101510.91
2023-04-21T05:27:12.596Z,101499.38
2023-04-21T05:30:01.980Z,101495.31
2023-04-21T05:32:51.780Z,101495.00
2023-04-21T05:35:41.188Z,101489.94
2023-04-21T05:38:31.844Z,101496.00
2023-04-21T05:41:22.663Z,101488.97
2023-04-21T05:44:11.894Z,101473.75
2023-04-21T05:47:01.138Z,101479.22
2023-04-21T05:49:53.853Z,101470.47
2023-04-21T05:52:43.528Z,101470.47
2023-04-21T05:55:36.112Z,101475.47
2023-04-21T05:58:25.416Z,101486.97
2023-04-21T06:01:15.639Z,101473.34
2023-04-21T06:04:05.159Z,101473.28
2023-04-21T06:06:54.812Z,101483.31
2023-04-21T06:09:44.154Z,101487.84
2023-04-21T06:12:34.970Z,101486.22
2023-04-21T06:15:24.173Z,101489.75
2023-04-21T06:18:13.642Z,101495.63
2023-04-21T06:21:02.983Z,101491.19
2023-04-21T06:23:52.312Z,101483.22
2023-04-21T06:26:41.498Z,101467.53
2023-04-21T06:29:32.215Z,101474.28
2023-04-21T06:32:21.430Z,101466.19
2023-04-21T06:35:11.311Z,101452.94
2023-04-21T06:38:00.537Z,101429.19
2023-04-21T06:40:49.961Z,101441.53
2023-04-21T06:43:39.360Z,101449.66
2023-04-21T06:46:30.130Z,101448.75
2023-04-21T06:49:19.824Z,101436.28
2023-04-21T06:52:09.405Z,101430.72
2023-04-21T06:54:58.730Z,101445.13
2023-04-21T06:57:48.022Z,101426.19
2023-04-21T07:00:37.516Z,101422.75
2023-04-21T07:03:28.421Z,101421.75
2023-04-21T07:06:17.704Z,101414.97
2023-04-21T07:09:07.047Z,101412.31
2023-04-21T07:11:56.557Z,101429.25
2023-04-21T07:14:45.895Z,101400.81
2023-04-21T07:17:35.344Z,101420.84
2023-04-21T07:20:26.302Z,101413.94
2023-04-21T07:23:15.737Z,101416.72
2023-04-21T07:26:05.467Z,101411.22
2023-04-21T07:28:55.541Z,101408.91
2023-04-21T07:31:46.992Z,101397.03
2023-04-21T07:34:36.309Z,101402.72
2023-04-21T07:37:27.247Z,101403.31
2023-04-21T07:40:16.717Z,101369.50
2023-04-21T07:43:06.059Z,101385.34
2023-04-21T07:45:55.557Z,101381.63
2023-04-21T07:48:45.728Z,101388.59
2023-04-21T07:51:35.160Z,101383.66
2023-04-21T07:54:25.850Z,101377.94
2023-04-21T07:57:15.175Z,101365.44
2023-04-21T08:00:04.779Z,101351.97
2023-04-21T08:03:01.666Z,101356.38
2023-04-21T08:05:51.151Z,101361.56
2023-04-21T08:08:40.568Z,101377.03
2023-04-21T08:11:31.180Z,101393.16
2023-04-21T08:14:20.573Z,101397.97
2023-04-21T08:17:10.010Z,101385.13
2023-04-21T08:19:59.836Z,101382.16
2023-04-21T08:22:49.228Z,101379.25
2023-04-21T08:25:38.534Z,101366.75
2023-04-21T08:28:29.700Z,101355.13
2023-04-21T08:31:19.997Z,101368.41
2023-04-21T08:34:09.475Z,101358.03
2023-04-21T08:36:58.703Z,101353.38
2023-04-21T08:39:48.252Z,101337.69
2023-04-21T08:42:39.165Z,101354.72
2023-04-21T08:45:30.884Z,101348.59
2023-04-21T08:48:23.748Z,101344.16
2023-04-21T08:51:13.927Z,101338.81
2023-04-21T08:54:03.242Z,101329.16
2023-04-21T08:56:58.914Z,101324.50
2023-04-21T08:59:53.990Z,101311.22
2023-04-21T09:03:01.422Z,101320.28
2023-04-21T09:06:00.805Z,101310.44
2023-04-21T09:08:56.664Z,101326.19
2023-04-21T09:11:46.022Z,101311.75
2023-04-21T09:14:35.981Z,101303.94
2023-04-21T09:17:32.725Z,101299.69
2023-04-21T09:20:25.235Z,101297.69
2023-04-21T09:23:15.042Z,101292.69
2023-04-21T09:26:05.363Z,101289.59
2023-04-21T09:28:55.272Z,101286.69
2023-04-21T09:31:46.202Z,101276.66
2023-04-21T09:34:42.511Z,101277.84
2023-04-21T09:37:35.572Z,101275.91
2023-04-21T09:40:25.173Z,101288.03
2023-04-21T09:43:14.399Z,101270.56
2023-04-21T09:46:07.294Z,101264.75
2023-04-21T09:49:00.881Z,101271.09
2023-04-21T09:52:16.886Z,101264.31
2023-04-21T09:55:04.332Z,101272.75
2023-04-21T09:57:58.743Z,101267.56
2023-04-21T10:00:48.810Z,101267.53
2023-04-21T10:03:41.340Z,101260.75
2023-04-21T10:06:32.198Z,101259.13
2023-04-21T10:09:25.501Z,101248.59
2023-04-21T10:12:18.594Z,101240.50
2023-04-21T10:15:28.848Z,101246.16
2023-04-21T10:18:20.316Z,101240.50
2023-04-21T10:21:14.245Z,101250.06
2023-04-21T10:24:08.858Z,101239.03
2023-04-21T10:27:02.304Z,101228.84
2023-04-21T10:29:57.155Z,101229.19
2023-04-21T10:32:46.964Z,101225.31
2023-04-21T10:36:01.152Z,101222.06
2023-04-21T10:38:57.623Z,101215.38
2023-04-21T10:41:47.300Z,101219.84
2023-04-21T10:44:36.920Z,101214.75
2023-04-21T10:47:34.549Z,101208.38
2023-04-21T10:50:26.697Z,101199.63
2023-04-21T10:53:18.849Z,101195.06
2023-04-21T10:56:09.075Z,101190.03
2023-04-21T10:59:00.563Z,101167.66
2023-04-21T11:01:49.899Z,101174.53
2023-04-21T11:04:46.135Z,101196.75
2023-04-21T11:07:35.639Z,101184.28
2023-04-21T11:10:25.101Z,101183.75
2023-04-21T11:13:14.494Z,101178.47
2023-04-21T11:16:06.960Z,101181.84
2023-04-21T11:18:58.468Z,101182.78
2023-04-21T11:21:50.644Z,101171.91
2023-04-21T11:24:45.186Z,101169.44
2023-04-21T11:27:34.417Z,101161.84
2023-04-21T11:30:32.823Z,101168.38
2023-04-21T11:33:22.202Z,101155.41
2023-04-21T11:36:11.564Z,101136.09
2023-04-21T11:39:08.519Z,101144.16
2023-04-21T11:41:57.861Z,101126.91
2023-04-21T11:44:47.103Z,101134.59
2023-04-21T11:47:37.663Z,101137.91
2023-04-21T11:50:33.421Z,101128.06
2023-04-21T11:53:22.873Z,101129.34
2023-04-21T11:56:13.602Z,101121.66
2023-04-21T11:59:07.492Z,101117.63
2023-04-21T12:01:59.784Z,101107.19
2023-04-21T12:05:00.736Z,101080.34
2023-04-21T12:07:52.008Z,101086.88
2023-04-21T12:10:47.434Z,101069.41
2023-04-21T12:13:41.384Z,101078.53
2023-04-21T12:16:31.325Z,101056.34
2023-04-21T12:19:37.120Z,101062.31
2023-04-21T12:22:26.413Z,101064.97
2023-04-21T12:25:15.994Z,101056.50
2023-04-21T12:28:05.233Z,101063.19
2023-04-21T12:30:56.350Z,101050.63
2023-04-21T12:33:45.903Z,101050.03
2023-04-21T12:36:36.439Z,101048.28
2023-04-21T12:39:25.988Z,101046.06
2023-04-21T12:42:15.293Z,101032.78
2023-04-21T12:45:05.617Z,101028.06
2023-04-21T12:47:56.364Z,101034.09
2023-04-21T12:50:46.698Z,101021.94
2023-04-21T12:53:36.857Z,101014.56
2023-04-21T12:56:26.454Z,100997.88
2023-04-21T12:59:15.812Z,101000.06
2023-04-21T13:02:05.288Z,100999.13
2023-04-21T13:04:55.914Z,100976.66
2023-04-21T13:07:45.138Z,100978.84
2023-04-21T13:10:34.372Z,100981.03
2023-04-21T13:13:23.587Z,100985.47
2023-04-21T13:16:12.835Z,100974.31
2023-04-21T13:19:02.088Z,100977.22
2023-04-21T13:21:54.147Z,100973.53
2023-04-21T13:24:43.970Z,100971.81
2023-04-21T13:27:33.731Z,100973.53
2023-04-21T13:30:22.938Z,100952.19
2023-04-21T13:33:15.003Z,100957.38
2023-04-21T13:36:04.707Z,100943.69
2023-04-21T13:38:56.407Z,100946.69
2023-04-21T13:41:45.647Z,100939.88
2023-04-21T13:44:35.018Z,100928.00
2023-04-21T13:47:25.383Z,100930.38
2023-04-21T13:50:14.722Z,100921.53
2023-04-21T13:53:04.180Z,100912.59
2023-04-21T13:55:57.222Z,100899.94
2023-04-21T13:58:46.724Z,100900.81
2023-04-21T14:01:36.019Z,100899.53
2023-04-21T14:04:25.706Z,100897.34
2023-04-21T14:07:18.123Z,100885.63
2023-04-21T14:10:09.040Z,100872.66
2023-04-21T14:12:59.685Z,100859.91
2023-04-21T14:15:48.887Z,100860.72
2023-04-21T14:18:44.468Z,100850.59
2023-04-21T14:21:33.766Z,100859.41
2023-04-21T14:24:23.026Z,100850.47
2023-04-21T14:27:12.397Z,100847.63
2023-04-21T14:30:03.190Z,100797.75
2023-04-21T14:32:52.571Z,100846.03
2023-04-21T14:35:42.240Z,100852.50
2023-04-21T14:38:31.793Z,100841.53
2023-04-21T14:41:21.146Z,100830.97
2023-04-21T14:44:10.406Z,100850.59
2023-04-21T14:47:09.132Z,100856.59
2023-04-21T14:49:59.593Z,100842.31
2023-04-21T14:52:49.836Z,100848.53
2023-04-21T14:55:39.257Z,100840.94
2023-04-21T14:58:28.540Z,100842.59
2023-04-21T15:01:17.919Z,100828.50
2023-04-21T15:04:09.437Z,100823.53
2023-04-21T15:06:59.041Z,100826.91
2023-04-21T15:09:48.742Z,100829.81
2023-04-21T15:12:38.741Z,100835.78
2023-04-21T15:15:28.126Z,100829.53
2023-04-21T15:18:17.509Z,100824.72
2023-04-21T15:21:08.521Z,100826.66
2023-04-21T15:23:57.976Z,100818.50
2023-04-21T15:26:47.286Z,100822.44
2023-04-21T15:29:36.737Z,100820.13
2023-04-21T15:32:26.390Z,100808.16
2023-04-21T15:35:15.847Z,100813.97
2023-04-21T15:38:07.268Z,100800.72
2023-04-21T15:41:01.277Z,100802.72
2023-04-21T15:43:50.992Z,100808.22
2023-04-21T15:46:40.310Z,100796.59
2023-04-21T15:49:29.943Z,100791.66
2023-04-21T15:52:19.201Z,100797.13
2023-04-21T15:55:11.777Z,100794.69
2023-04-21T15:58:00.970Z,100788.56
2023-04-21T16:00:50.268Z,100781.28
2023-04-21T16:03:40.299Z,100778.44
2023-04-21T16:06:31.549Z,100765.28
2023-04-21T16:09:21.923Z,100767.28
2023-04-21T16:12:12.743Z,100752.38
2023-04-21T16:15:16.117Z,100756.31
2023-04-21T16:18:11.526Z,100765.41
2023-04-21T16:21:00.959Z,100764.63
2023-04-21T16:23:50.578Z,100737.41
2023-04-21T16:26:39.999Z,100746.25
2023-04-21T16:29:31.097Z,100729.28
2023-04-21T16:32:20.477Z,100739.00
2023-04-21T16:35:11.655Z,100731.09
2023-04-21T16:38:00.990Z,100727.69
2023-04-21T16:40:50.508Z,100722.06
2023-04-21T16:43:39.875Z,100728.81
2023-04-21T16:46:30.704Z,100719.00
2023-04-21T16:49:20.023Z,100739.88
2023-04-21T16:52:11.266Z,100724.44
2023-04-21T16:55:00.627Z,100706.56
2023-04-21T16:57:50.034Z,100724.31
2023-04-21T17:00:39.459Z,100729.25
2023-04-21T17:03:30.361Z,100717.31
2023-04-21T17:06:21.350Z,100709.28
2023-04-21T17:09:11.300Z,100718.00
2023-04-21T17:12:01.306Z,100705.75
2023-04-21T17:14:50.650Z,100707.25
2023-04-21T17:17:43.688Z,100703.44
2023-04-21T17:20:35.329Z,100702.47
2023-04-21T17:23:24.962Z,100713.38
2023-04-21T17:26:15.332Z,100700.09
2023-04-21T17:29:05.147Z,100710.38
2023-04-21T17:31:54.397Z,100703.75
2023-04-21T17:34:43.617Z,100700.72
2023-04-21T17:37:35.264Z,100682.78
2023-04-21T17:40:24.962Z,100690.69
2023-04-21T17:43:14.395Z,100691.63
2023-04-21T17:46:03.783Z,100687.50
2023-04-21T17:48:53.055Z,100676.72
2023-04-21T17:51:42.324Z,100680.06
2023-04-21T17:54:33.149Z,100688.81
2023-04-21T17:57:22.458Z,100691.59
2023-04-21T18:00:13.698Z,100699.50
2023-04-21T18:03:03.332Z,100691.59
2023-04-21T18:05:52.793Z,100687.31
2023-04-21T18:08:42.328Z,100684.66
2023-04-21T18:11:33.222Z,100684.22
2023-04-21T18:14:22.528Z,100677.00
2023-04-21T18:17:11.830Z,100679.53
2023-04-21T18:20:01.045Z,100673.19
2023-04-21T18:22:51.763Z,100665.03
2023-04-21T18:25:42.936Z,100681.59
2023-04-21T18:28:34.119Z,100673.53
2023-04-21T18:31:26.289Z,100679.50
2023-04-21T18:34:16.620Z,100681.34
2023-04-21T18:37:05.894Z,100680.56
2023-04-21T18:39:55.137Z,100690.78
2023-04-21T18:42:44.339Z,100685.53
2023-04-21T18:45:35.297Z,100678.06
2023-04-21T18:48:24.525Z,100675.97
2023-04-21T18:51:14.412Z,100668.72
2023-04-21T18:54:04.939Z,100673.38
2023-04-21T18:56:54.236Z,100679.41
2023-04-21T18:59:43.556Z,100679.50
2023-04-21T19:02:34.590Z,100675.72
2023-04-21T19:05:24.037Z,100681.38
2023-04-21T19:08:13.308Z,100682.53
2023-04-21T19:11:03.057Z,100679.06
2023-04-21T19:13:52.395Z,100670.63
2023-04-21T19:16:41.768Z,100677.63
2023-04-21T19:19:32.572Z,100675.53
2023-04-21T19:22:24.474Z,100672.19
2023-04-21T19:25:13.850Z,100666.41
2023-04-21T19:28:04.014Z,100665.47
2023-04-21T19:30:53.476Z,100676.22
2023-04-21T19:33:42.920Z,100677.34
2023-04-21T19:36:33.734Z,100685.00
2023-04-21T19:39:22.996Z,100673.41
2023-04-21T19:42:12.469Z,100675.22
2023-04-21T19:45:02.069Z,100680.91
2023-04-21T19:47:51.712Z,100663.41
2023-04-21T19:50:41.067Z,100678.59
2023-04-21T19:53:31.877Z,100673.94
2023-04-21T19:56:21.360Z,100680.22
2023-04-21T19:59:10.632Z,100680.28
2023-04-21T20:02:00.069Z,100671.78
2023-04-21T20:04:50.846Z,100675.84
2023-04-21T20:07:40.782Z,100673.09
2023-04-21T20:10:31.650Z,100685.34
2023-04-21T20:13:21.059Z,100675.88
2023-04-21T20:16:10.552Z,100679.69
2023-04-21T20:19:00.104Z,100671.63
2023-04-21T20:21:49.836Z,100672.59
2023-04-21T20:24:39.108Z,100675.63
2023-04-21T20:27:29.837Z,100671.78
2023-04-21T20:30:19.352Z,100666.94
2023-04-21T20:33:08.714Z,100662.25
2023-04-21T20:35:58.224Z,100667.72
2023-04-21T20:38:49.615Z,100662.25
2023-04-21T20:41:39.233Z,100663.56
2023-04-21T20:44:31.513Z,100659.34
2023-04-21T20:47:21.862Z,100646.81
2023-04-21T20:50:11.999Z,100635.84
2023-04-21T20:53:02.238Z,100651.47
2023-04-21T20:55:51.653Z,100633.44
2023-04-21T20:58:40.881Z,100650.53
2023-04-21T21:01:36.788Z,100633.47
2023-04-21T21:04:26.244Z,100653.00
2023-04-21T21:07:15.804Z,100649.13
2023-04-21T21:10:05.677Z,100631.56
2023-04-21T21:12:54.951Z,100625.13
2023-04-21T21:15:44.295Z,100630.75
2023-04-21T21:18:35.990Z,100635.09
2023-04-21T21:21:25.310Z,100624.00
2023-04-21T21:24:14.688Z,100621.88
2023-04-21T21:27:04.234Z,100636.56
2023-04-21T21:29:53.482Z,100622.06
2023-04-21T21:32:42.822Z,100633.50
2023-04-21T21:35:34.312Z,100622.88
2023-04-21T21:38:23.789Z,100630.91
2023-04-21T21:41:14.112Z,100633.97
2023-04-21T21:44:03.645Z,100627.06
2023-04-21T21:46:53.100Z,100615.44
2023-04-21T21:49:42.356Z,100623.19
2023-04-21T21:52:33.220Z,100618.97
2023-04-21T21:55:22.689Z,100611.25
2023-04-21T21:58:11.989Z,100621.09
2023-04-21T22:01:01.239Z,100622.88
2023-04-21T22:03:52.109Z,100621.41
2023-04-21T22:06:41.420Z,100629.94
2023-04-21T22:09:32.255Z,100604.81
2023-04-21T22:12:21.573Z,100624.97
2023-04-21T22:15:12.583Z,100633.16
2023-04-21T22:18:02.204Z,100619.31
2023-04-21T22:20:51.627Z,100622.69
2023-04-21T22:23:40.900Z,100611.50
2023-04-21T22:26:31.591Z,100592.28
2023-04-21T22:29:21.243Z,100593.91
2023-04-21T22:32:11.962Z,100585.72
2023-04-21T22:35:02.164Z,100588.75
2023-04-21T22:37:51.607Z,100581.47
2023-04-21T22:40:40.966Z,100587.44
2023-04-21T22:43:31.654Z,100592.59
2023-04-21T22:46:21.123Z,100580.84
2023-04-21T22:49:10.600Z,100578.53
2023-04-21T22:51:59.802Z,100587.72
2023-04-21T22:54:49.845Z,100584.66
2023-04-21T22:57:39.286Z,100578.19
2023-04-21T23:00:30.106Z,100586.75
2023-04-21T23:03:19.593Z,100574.19
2023-04-21T23:06:09.521Z,100565.31
2023-04-21T23:08:58.775Z,100570.97
2023-04-21T23:11:48.081Z,100583.56
2023-04-21T23:14:37.327Z,100579.38
2023-04-21T23:17:28.024Z,100555.84
2023-04-21T23:20:17.550Z,100573.38
2023-04-21T23:23:07.024Z,100566.16
2023-04-21T23:25:56.262Z,100565.19
2023-04-21T23:28:45.581Z,100558.22
2023-04-21T23:31:34.907Z,100558.56
2023-04-21T23:34:25.572Z,100562.91
2023-04-21T23:37:14.739Z,100545.69
2023-04-21T23:40:09.311Z,100548.44
2023-04-21T23:42:58.624Z,100550.25
2023-04-21T23:45:48.195Z,100555.56
2023-04-21T23:48:37.617Z,100544.94
2023-04-21T23:51:28.852Z,100536.25
2023-04-21T23:54:18.108Z,100531.56
2023-04-21T23:57:07.780Z,100525.72
2023-04-21T23:59:56.988Z,100536.72
